sensor_id;sensor_type;location;lat;lon;timestamp;pressure;altitude;pressure_sealevel;temperature;humidity
48652;BME280;34442;52.362;-1.302;2023-02-20T00:01:52;101055.66;;;8.09;100.00
48652;BME280;34442;52.362;-1.302;2023-02-20T00:04:19;101048.09;;;8.13;100.00
48652;BME280;34442;52.362;-1.302;2023-02-20T00:06:45;101047.28;;;8.12;100.00
48652;BME280;34442;52.362;-1.302;2023-02-20T00:09:12;101050.28;;;8.09;100.00
48652;BME280;34442;52.362;-1.302;2023-02-20T00:11:38;101042.25;;;8.09;100.00
48652;BME280;34442;52.362;-1.302;2023-02-20T00:14:03;101045.47;;;8.05;100.00
48652;BME280;34442;52.362;-1.302;2023-02-20T00:16:29;101044.31;;;7.99;100.00
48652;BME280;34442;52.362;-1.302;2023-02-20T00:18:54;101041.63;;;8.07;100.00
48652;BME280;34442;52.362;-1.302;2023-02-20T00:21:20;101038.78;;;8.01;100.00
48652;BME280;34442;52.362;-1.302;2023-02-20T00:23:45;101034.97;;;7.95;100.00
48652;BME280;34442;52.362;-1.302;2023-02-20T00:26:12;101044.81;;;8.03;100.00
48652;BME280;34442;52.362;-1.302;2023-02-20T00:28:39;101043.91;;;8.10;100.00
48652;BME280;34442;52.362;-1.302;2023-02-20T00:31:07;101044.56;;;8.20;100.00
48652;BME280;34442;52.362;-1.302;2023-02-20T00:33:33;101039.19;;;8.20;100.00
48652;BME280;34442;52.362;-1.302;2023-02-20T00:36:02;101025.31;;;8.17;100.00
48652;BME280;34442;52.362;-1.302;2023-02-20T00:38:28;101027.13;;;8.25;100.00
48652;BME280;34442;52.362;-1.302;2023-02-20T00:40:53;101023.09;;;8.29;100.00
48652;BME280;34442;52.362;-1.302;2023-02-20T00:43:19;101030.81;;;8.24;100.00
48652;BME280;34442;52.362;-1.302;2023-02-20T00:45:44;101025.78;;;8.29;100.00
48652;BME280;34442;52.362;-1.302;2023-02-20T00:48:12;101025.59;;;8.30;100.00
48652;BME280;34442;52.362;-1.302;2023-02-20T00:50:37;101020.75;;;8.26;100.00
48652;BME280;34442;52.362;-1.302;2023-02-20T00:53:03;101014.22;;;8.28;100.00
48652;BME280;34442;52.362;-1.302;2023-02-20T00:55:28;101015.25;;;8.27;100.00
48652;BME280;34442;52.362;-1.302;2023-02-20T00:57:54;101002.84;;;8.26;100.00
48652;BME280;34442;52.362;-1.302;2023-02-20T01:00:25;101007.03;;;8.29;100.00
48652;BME280;34442;52.362;-1.302;2023-02-20T01:02:51;101002.72;;;8.19;100.00
48652;BME280;34442;52.362;-1.302;2023-02-20T01:05:20;101001.03;;;8.18;100.00
48652;BME280;34442;52.362;-1.302;2023-02-20T01:07:46;101002.88;;;8.18;100.00
48652;BME280;34442;52.362;-1.302;2023-02-20T01:10:13;101001.53;;;8.22;100.00
48652;BME280;34442;52.362;-1.302;2023-02-20T01:12:38;101001.22;;;8.17;100.00
48652;BME280;34442;52.362;-1.302;2023-02-20T01:15:06;100998.06;;;8.13;100.00
48652;BME280;34442;52.362;-1.302;2023-02-20T01:17:32;100992.00;;;8.19;100.00
48652;BME280;34442;52.362;-1.302;2023-02-20T01:19:58;100988.50;;;8.19;100.00
48652;BME280;34442;52.362;-1.302;2023-02-20T01:22:23;100979.09;;;8.23;100.00
48652;BME280;34442;52.362;-1.302;2023-02-20T01:24:48;100980.78;;;8.24;100.00
48652;BME280;34442;52.362;-1.302;2023-02-20T01:27:14;100977.06;;;8.25;100.00
48652;BME280;34442;52.362;-1.302;2023-02-20T01:29:40;100976.06;;;8.26;100.00
48652;BME280;34442;52.362;-1.302;2023-02-20T01:32:05;100972.25;;;8.20;100.00
48652;BME280;34442;52.362;-1.302;2023-02-20T01:34:30;100972.28;;;8.12;100.00
48652;BME280;34442;52.362;-1.302;2023-02-20T01:36:56;100978.66;;;8.11;100.00
48652;BME280;34442;52.362;-1.302;2023-02-20T01:39:24;100966.44;;;8.09;100.00
48652;BME280;34442;52.362;-1.302;2023-02-20T01:42:02;100980.66;;;8.09;100.00
48652;BME280;34442;52.362;-1.302;2023-02-20T01:44:35;100980.97;;;8.14;100.00
48652;BME280;34442;52.362;-1.302;2023-02-20T01:47:05;100987.66;;;8.18;100.00
48652;BME280;34442;52.362;-1.302;2023-02-20T01:52:12;100983.84;;;8.13;100.00
48652;BME280;34442;52.362;-1.302;2023-02-20T01:54:42;100985.34;;;8.15;100.00
48652;BME280;34442;52.362;-1.302;2023-02-20T01:57:13;100992.53;;;8.15;100.00
48652;BME280;34442;52.362;-1.302;2023-02-20T01:59:45;100985.94;;;8.26;100.00
48652;BME280;34442;52.362;-1.302;2023-02-20T02:02:11;100992.88;;;8.12;100.00
48652;BME280;34442;52.362;-1.302;2023-02-20T02:04:38;100996.16;;;8.22;100.00
48652;BME280;34442;52.362;-1.302;2023-02-20T02:07:06;100994.19;;;8.16;100.00
48652;BME280;34442;52.362;-1.302;2023-02-20T02:09:43;100990.84;;;8.14;100.00
48652;BME280;34442;52.362;-1.302;2023-02-20T02:12:17;100991.03;;;8.12;100.00
48652;BME280;34442;52.362;-1.302;2023-02-20T02:14:43;100982.50;;;8.09;100.00
48652;BME280;34442;52.362;-1.302;2023-02-20T02:17:16;100985.34;;;8.15;100.00
48652;BME280;34442;52.362;-1.302;2023-02-20T02:25:41;100963.47;;;8.04;100.00
48652;BME280;34442;52.362;-1.302;2023-02-20T02:36:33;100958.16;;;7.95;100.00
48652;BME280;34442;52.362;-1.302;2023-02-20T02:39:15;100957.63;;;8.00;100.00
48652;BME280;34442;52.362;-1.302;2023-02-20T02:45:07;100960.00;;;7.95;100.00
48652;BME280;34442;52.362;-1.302;2023-02-20T02:47:40;100949.97;;;7.89;100.00
48652;BME280;34442;52.362;-1.302;2023-02-20T02:50:33;100954.50;;;7.88;100.00
48652;BME280;34442;52.362;-1.302;2023-02-20T02:53:01;100948.03;;;7.83;100.00
48652;BME280;34442;52.362;-1.302;2023-02-20T02:55:29;100942.75;;;7.66;100.00
48652;BME280;34442;52.362;-1.302;2023-02-20T02:57:55;100944.25;;;7.61;100.00
48652;BME280;34442;52.362;-1.302;2023-02-20T03:00:25;100935.31;;;7.45;100.00
48652;BME280;34442;52.362;-1.302;2023-02-20T03:06:03;100937.81;;;7.39;100.00
48652;BME280;34442;52.362;-1.302;2023-02-20T03:08:40;100928.66;;;7.33;100.00
48652;BME280;34442;52.362;-1.302;2023-02-20T03:11:15;100928.47;;;7.35;100.00
48652;BME280;34442;52.362;-1.302;2023-02-20T03:13:54;100923.09;;;7.43;100.00
48652;BME280;34442;52.362;-1.302;2023-02-20T03:19:47;100922.78;;;7.38;100.00
48652;BME280;34442;52.362;-1.302;2023-02-20T03:22:34;100919.63;;;7.34;100.00
48652;BME280;34442;52.362;-1.302;2023-02-20T03:25:34;100917.59;;;7.28;100.00
48652;BME280;34442;52.362;-1.302;2023-02-20T03:28:22;100918.44;;;7.37;100.00
48652;BME280;34442;52.362;-1.302;2023-02-20T03:30:59;100924.25;;;7.40;100.00
48652;BME280;34442;52.362;-1.302;2023-02-20T03:33:39;100925.75;;;7.43;100.00
48652;BME280;34442;52.362;-1.302;2023-02-20T03:36:49;100917.59;;;7.36;100.00
48652;BME280;34442;52.362;-1.302;2023-02-20T03:39:40;100904.41;;;7.35;100.00
48652;BME280;34442;52.362;-1.302;2023-02-20T03:42:30;100902.41;;;7.37;100.00
48652;BME280;34442;52.362;-1.302;2023-02-20T03:45:17;100905.56;;;7.32;100.00
48652;BME280;34442;52.362;-1.302;2023-02-20T03:47:46;100898.22;;;7.34;100.00
48652;BME280;34442;52.362;-1.302;2023-02-20T03:50:15;100892.53;;;7.37;100.00
48652;BME280;34442;52.362;-1.302;2023-02-20T03:52:59;100901.00;;;7.49;100.00
48652;BME280;34442;52.362;-1.302;2023-02-20T03:55:24;100900.22;;;7.32;100.00
48652;BME280;34442;52.362;-1.302;2023-02-20T03:57:58;100900.72;;;7.36;100.00
48652;BME280;34442;52.362;-1.302;2023-02-20T04:00:29;100899.88;;;7.35;100.00
48652;BME280;34442;52.362;-1.302;2023-02-20T04:02:59;100898.03;;;7.36;100.00
48652;BME280;34442;52.362;-1.302;2023-02-20T04:05:32;100907.91;;;7.35;100.00
48652;BME280;34442;52.362;-1.302;2023-02-20T04:10:39;100915.59;;;7.38;100.00
48652;BME280;34442;52.362;-1.302;2023-02-20T04:13:06;100912.41;;;7.35;100.00
48652;BME280;34442;52.362;-1.302;2023-02-20T04:15:33;100908.09;;;7.34;100.00
48652;BME280;34442;52.362;-1.302;2023-02-20T04:18:12;100920.59;;;7.41;100.00
48652;BME280;34442;52.362;-1.302;2023-02-20T04:20:38;100919.78;;;7.41;100.00
48652;BME280;34442;52.362;-1.302;2023-02-20T04:23:13;100925.13;;;7.41;100.00
48652;BME280;34442;52.362;-1.302;2023-02-20T04:25:43;100914.41;;;7.41;100.00
48652;BME280;34442;52.362;-1.302;2023-02-20T04:28:11;100928.09;;;7.46;100.00
48652;BME280;34442;52.362;-1.302;2023-02-20T04:30:37;100925.44;;;7.46;100.00
48652;BME280;34442;52.362;-1.302;2023-02-20T04:33:02;100930.25;;;7.51;100.00
48652;BME280;34442;52.362;-1.302;2023-02-20T04:35:28;100929.75;;;7.47;100.00
48652;BME280;34442;52.362;-1.302;2023-02-20T04:37:53;100933.13;;;7.49;100.00
48652;BME280;34442;52.362;-1.302;2023-02-20T04:40:21;100924.25;;;7.40;100.00
48652;BME280;34442;52.362;-1.302;2023-02-20T04:42:46;100935.13;;;7.47;100.00
48652;BME280;34442;52.362;-1.302;2023-02-20T04:45:12;100925.75;;;7.51;100.00
48652;BME280;34442;52.362;-1.302;2023-02-20T04:47:37;100926.91;;;7.49;100.00
48652;BME280;34442;52.362;-1.302;2023-02-20T04:50:03;100931.44;;;7.48;100.00
48652;BME280;34442;52.362;-1.302;2023-02-20T04:52:29;100931.09;;;7.51;100.00
48652;BME280;34442;52.362;-1.302;2023-02-20T04:54:54;100930.25;;;7.51;100.00
48652;BME280;34442;52.362;-1.302;2023-02-20T04:57:20;100930.56;;;7.56;100.00
48652;BME280;34442;52.362;-1.302;2023-02-20T04:59:46;100927.22;;;7.62;100.00
48652;BME280;34442;52.362;-1.302;2023-02-20T05:02:12;100921.50;;;7.65;100.00
48652;BME280;34442;52.362;-1.302;2023-02-20T05:04:37;100926.16;;;7.71;100.00
48652;BME280;34442;52.362;-1.302;2023-02-20T05:07:03;100925.84;;;7.66;100.00
48652;BME280;34442;52.362;-1.302;2023-02-20T05:09:28;100917.81;;;7.66;100.00
48652;BME280;34442;52.362;-1.302;2023-02-20T05:11:54;100918.16;;;7.63;100.00
48652;BME280;34442;52.362;-1.302;2023-02-20T05:14:20;100913.31;;;7.66;100.00
48652;BME280;34442;52.362;-1.302;2023-02-20T05:16:46;100912.31;;;7.59;100.00
48652;BME280;34442;52.362;-1.302;2023-02-20T05:19:13;100902.78;;;7.57;100.00
48652;BME280;34442;52.362;-1.302;2023-02-20T05:21:41;100910.78;;;7.65;100.00
48652;BME280;34442;52.362;-1.302;2023-02-20T05:24:32;100920.50;;;7.66;100.00
48652;BME280;34442;52.362;-1.302;2023-02-20T05:26:58;100915.50;;;7.63;100.00
48652;BME280;34442;52.362;-1.302;2023-02-20T05:29:24;100910.28;;;7.69;100.00
48652;BME280;34442;52.362;-1.302;2023-02-20T05:31:49;100910.94;;;7.71;100.00
48652;BME280;34442;52.362;-1.302;2023-02-20T05:34:15;100910.28;;;7.69;100.00
48652;BME280;34442;52.362;-1.302;2023-02-20T05:36:40;100908.94;;;7.74;100.00
48652;BME280;34442;52.362;-1.302;2023-02-20T05:39:06;100912.09;;;7.69;100.00
48652;BME280;34442;52.362;-1.302;2023-02-20T05:41:31;100902.38;;;7.76;100.00
48652;BME280;34442;52.362;-1.302;2023-02-20T05:43:57;100900.38;;;7.78;100.00
48652;BME280;34442;52.362;-1.302;2023-02-20T05:46:25;100892.69;;;7.75;100.00
48652;BME280;34442;52.362;-1.302;2023-02-20T05:48:52;100888.16;;;7.76;100.00
48652;BME280;34442;52.362;-1.302;2023-02-20T05:51:22;100898.69;;;7.77;100.00
48652;BME280;34442;52.362;-1.302;2023-02-20T05:53:48;100874.78;;;7.76;100.00
48652;BME280;34442;52.362;-1.302;2023-02-20T05:56:13;100879.13;;;7.77;100.00
48652;BME280;34442;52.362;-1.302;2023-02-20T05:58:41;100873.44;;;7.80;100.00
48652;BME280;34442;52.362;-1.302;2023-02-20T06:01:07;100888.03;;;7.69;100.00
48652;BME280;34442;52.362;-1.302;2023-02-20T06:03:32;100877.47;;;7.76;100.00
48652;BME280;34442;52.362;-1.302;2023-02-20T06:05:58;100889.00;;;7.76;100.00
48652;BME280;34442;52.362;-1.302;2023-02-20T06:08:23;100888.84;;;7.78;100.00
48652;BME280;34442;52.362;-1.302;2023-02-20T06:10:48;100879.94;;;7.77;100.00
48652;BME280;34442;52.362;-1.302;2023-02-20T06:13:14;100883.31;;;7.79;100.00
48652;BME280;34442;52.362;-1.302;2023-02-20T06:15:42;100892.19;;;7.71;100.00
48652;BME280;34442;52.362;-1.302;2023-02-20T06:18:08;100879.31;;;7.75;100.00
48652;BME280;34442;52.362;-1.302;2023-02-20T06:20:33;100895.22;;;7.68;100.00
48652;BME280;34442;52.362;-1.302;2023-02-20T06:22:58;100889.19;;;7.75;100.00
48652;BME280;34442;52.362;-1.302;2023-02-20T06:25:24;100903.91;;;7.70;100.00
48652;BME280;34442;52.362;-1.302;2023-02-20T06:27:50;100900.56;;;7.68;100.00
48652;BME280;34442;52.362;-1.302;2023-02-20T06:30:16;100897.84;;;7.77;100.00
48652;BME280;34442;52.362;-1.302;2023-02-20T06:32:41;100902.88;;;7.80;100.00
48652;BME280;34442;52.362;-1.302;2023-02-20T06:35:07;100902.03;;;7.79;100.00
48652;BME280;34442;52.362;-1.302;2023-02-20T06:37:32;100908.75;;;7.75;100.00
48652;BME280;34442;52.362;-1.302;2023-02-20T06:39:58;100902.69;;;7.81;100.00
48652;BME280;34442;52.362;-1.302;2023-02-20T06:42:26;100903.59;;;7.74;100.00
48652;BME280;34442;52.362;-1.302;2023-02-20T06:44:51;100910.06;;;7.79;100.00
48652;BME280;34442;52.362;-1.302;2023-02-20T06:47:17;100909.53;;;7.84;100.00
48652;BME280;34442;52.362;-1.302;2023-02-20T06:49:42;100908.69;;;7.83;100.00
48652;BME280;34442;52.362;-1.302;2023-02-20T06:52:09;100898.00;;;7.83;100.00
48652;BME280;34442;52.362;-1.302;2023-02-20T06:54:34;100895.50;;;7.82;100.00
48652;BME280;34442;52.362;-1.302;2023-02-20T06:57:00;100893.78;;;7.89;100.00
48652;BME280;34442;52.362;-1.302;2023-02-20T06:59:28;100908.00;;;7.89;100.00
48652;BME280;34442;52.362;-1.302;2023-02-20T07:01:54;100907.28;;;7.95;100.00
48652;BME280;34442;52.362;-1.302;2023-02-20T07:04:22;100904.28;;;7.99;100.00
48652;BME280;34442;52.362;-1.302;2023-02-20T07:06:49;100921.69;;;7.94;100.00
48652;BME280;34442;52.362;-1.302;2023-02-20T07:09:15;100924.00;;;7.97;100.00
48652;BME280;34442;52.362;-1.302;2023-02-20T07:11:41;100920.69;;;7.95;100.00
48652;BME280;34442;52.362;-1.302;2023-02-20T07:14:07;100922.81;;;8.00;100.00
48652;BME280;34442;52.362;-1.302;2023-02-20T07:16:33;100916.63;;;8.00;100.00
48652;BME280;34442;52.362;-1.302;2023-02-20T07:18:58;100927.84;;;8.03;100.00
48652;BME280;34442;52.362;-1.302;2023-02-20T07:21:24;100926.63;;;8.06;100.00
48652;BME280;34442;52.362;-1.302;2023-02-20T07:23:49;100919.56;;;8.13;100.00
48652;BME280;34442;52.362;-1.302;2023-02-20T07:26:24;100919.38;;;8.14;100.00
48652;BME280;34442;52.362;-1.302;2023-02-20T07:28:50;100917.38;;;8.16;100.00
48652;BME280;34442;52.362;-1.302;2023-02-20T07:31:16;100927.84;;;8.26;100.00
48652;BME280;34442;52.362;-1.302;2023-02-20T07:33:41;100934.22;;;8.25;100.00
48652;BME280;34442;52.362;-1.302;2023-02-20T07:36:11;100920.47;;;8.28;100.00
48652;BME280;34442;52.362;-1.302;2023-02-20T07:38:40;100922.13;;;8.29;100.00
48652;BME280;34442;52.362;-1.302;2023-02-20T07:41:06;100932.66;;;8.31;100.00
48652;BME280;34442;52.362;-1.302;2023-02-20T07:43:31;100932.00;;;8.37;100.00
48652;BME280;34442;52.362;-1.302;2023-02-20T07:45:57;100915.28;;;8.27;100.00
48652;BME280;34442;52.362;-1.302;2023-02-20T07:48:23;100912.22;;;8.38;100.00
48652;BME280;34442;52.362;-1.302;2023-02-20T07:50:48;100923.97;;;8.37;100.00
48652;BME280;34442;52.362;-1.302;2023-02-20T07:53:15;100931.28;;;8.35;100.00
48652;BME280;34442;52.362;-1.302;2023-02-20T07:55:41;100929.78;;;8.40;100.00
48652;BME280;34442;52.362;-1.302;2023-02-20T07:58:06;100925.56;;;8.46;100.00
48652;BME280;34442;52.362;-1.302;2023-02-20T08:00:32;100925.06;;;8.42;100.00
48652;BME280;34442;52.362;-1.302;2023-02-20T08:02:57;100929.59;;;8.42;100.00
48652;BME280;34442;52.362;-1.302;2023-02-20T08:05:24;100925.69;;;8.53;100.00
48652;BME280;34442;52.362;-1.302;2023-02-20T08:07:50;100921.25;;;8.60;100.00
48652;BME280;34442;52.362;-1.302;2023-02-20T08:10:18;100922.69;;;8.70;100.00
48652;BME280;34442;52.362;-1.302;2023-02-20T08:12:45;100930.25;;;8.67;100.00
48652;BME280;34442;52.362;-1.302;2023-02-20T08:15:10;100930.25;;;8.67;100.00
48652;BME280;34442;52.362;-1.302;2023-02-20T08:17:37;100932.75;;;8.68;100.00
48652;BME280;34442;52.362;-1.302;2023-02-20T08:20:04;100926.84;;;8.73;100.00
48652;BME280;34442;52.362;-1.302;2023-02-20T08:22:30;100919.63;;;8.74;100.00
48652;BME280;34442;52.362;-1.302;2023-02-20T08:24:55;100920.47;;;8.74;100.00
48652;BME280;34442;52.362;-1.302;2023-02-20T08:27:20;100919.38;;;8.83;100.00
48652;BME280;34442;52.362;-1.302;2023-02-20T08:29:46;100924.84;;;8.90;100.00
48652;BME280;34442;52.362;-1.302;2023-02-20T08:32:11;100917.09;;;8.95;100.00
48652;BME280;34442;52.362;-1.302;2023-02-20T08:34:37;100906.38;;;8.95;100.00
48652;BME280;34442;52.362;-1.302;2023-02-20T08:37:02;100895.91;;;9.00;100.00
48652;BME280;34442;52.362;-1.302;2023-02-20T08:39:30;100894.72;;;9.17;100.00
48652;BME280;34442;52.362;-1.302;2023-02-20T08:41:56;100899.91;;;9.19;100.00
48652;BME280;34442;52.362;-1.302;2023-02-20T08:44:24;100906.66;;;9.15;100.00
48652;BME280;34442;52.362;-1.302;2023-02-20T08:46:50;100913.59;;;9.24;100.00
48652;BME280;34442;52.362;-1.302;2023-02-20T08:49:17;100902.25;;;9.22;100.00
48652;BME280;34442;52.362;-1.302;2023-02-20T08:51:46;100885.94;;;9.24;100.00
48652;BME280;34442;52.362;-1.302;2023-02-20T08:54:13;100886.78;;;9.39;100.00
48652;BME280;34442;52.362;-1.302;2023-02-20T08:56:40;100882.34;;;9.31;100.00
48652;BME280;34442;52.362;-1.302;2023-02-20T08:59:05;100883.25;;;9.38;100.00
48652;BME280;34442;52.362;-1.302;2023-02-20T09:01:31;100873.81;;;9.42;100.00
48652;BME280;34442;52.362;-1.302;2023-02-20T09:03:56;100874.34;;;9.53;100.00
48652;BME280;34442;52.362;-1.302;2023-02-20T09:06:22;100886.75;;;9.54;100.00
48652;BME280;34442;52.362;-1.302;2023-02-20T09:08:51;100910.44;;;9.65;100.00
48652;BME280;34442;52.362;-1.302;2023-02-20T09:11:17;100899.53;;;9.52;100.00
48652;BME280;34442;52.362;-1.302;2023-02-20T09:13:44;100902.00;;;9.68;100.00
48652;BME280;34442;52.362;-1.302;2023-02-20T09:16:11;100899.03;;;9.78;100.00
48652;BME280;34442;52.362;-1.302;2023-02-20T09:18:37;100908.00;;;9.70;100.00
48652;BME280;34442;52.362;-1.302;2023-02-20T09:21:03;100919.94;;;9.82;100.00
48652;BME280;34442;52.362;-1.302;2023-02-20T09:23:28;100909.75;;;9.78;100.00
48652;BME280;34442;52.362;-1.302;2023-02-20T09:25:54;100906.41;;;9.90;100.00
48652;BME280;34442;52.362;-1.302;2023-02-20T09:28:19;100900.28;;;9.97;100.00
48652;BME280;34442;52.362;-1.302;2023-02-20T09:30:45;100886.06;;;10.03;100.00
48652;BME280;34442;52.362;-1.302;2023-02-20T09:33:10;100893.69;;;9.99;100.00
48652;BME280;34442;52.362;-1.302;2023-02-20T09:35:36;100885.44;;;10.01;100.00
48652;BME280;34442;52.362;-1.302;2023-02-20T09:38:01;100884.28;;;10.10;100.00
48652;BME280;34442;52.362;-1.302;2023-02-20T09:40:29;100885.13;;;10.10;100.00
48652;BME280;34442;52.362;-1.302;2023-02-20T09:45:31;100887.13;;;10.23;100.00
48652;BME280;34442;52.362;-1.302;2023-02-20T09:55:44;100897.84;;;10.38;100.00
48652;BME280;34442;52.362;-1.302;2023-02-20T09:58:24;100898.78;;;10.52;100.00
48652;BME280;34442;52.362;-1.302;2023-02-20T10:00:51;100913.75;;;10.61;100.00
48652;BME280;34442;52.362;-1.302;2023-02-20T10:03:33;100923.91;;;10.87;100.00
48652;BME280;34442;52.362;-1.302;2023-02-20T10:06:12;100922.59;;;11.11;100.00
48652;BME280;34442;52.362;-1.302;2023-02-20T10:08:42;100925.78;;;11.21;100.00
48652;BME280;34442;52.362;-1.302;2023-02-20T10:11:09;100909.06;;;11.26;100.00
48652;BME280;34442;52.362;-1.302;2023-02-20T10:13:58;100903.00;;;11.17;100.00
48652;BME280;34442;52.362;-1.302;2023-02-20T10:19:01;100889.66;;;11.02;100.00
48652;BME280;34442;52.362;-1.302;2023-02-20T10:26:53;100876.28;;;11.15;100.00
48652;BME280;34442;52.362;-1.302;2023-02-20T10:29:25;100886.66;;;11.18;100.00
48652;BME280;34442;52.362;-1.302;2023-02-20T10:31:57;100877.78;;;11.25;100.00
48652;BME280;34442;52.362;-1.302;2023-02-20T10:34:31;100875.75;;;11.33;100.00
48652;BME280;34442;52.362;-1.302;2023-02-20T10:37:26;100885.53;;;11.41;100.00
48652;BME280;34442;52.362;-1.302;2023-02-20T10:40:09;100885.31;;;11.42;100.00
48652;BME280;34442;52.362;-1.302;2023-02-20T10:43:00;100896.09;;;11.42;100.00
48652;BME280;34442;52.362;-1.302;2023-02-20T10:45:40;100882.63;;;11.36;100.00
48652;BME280;34442;52.362;-1.302;2023-02-20T10:48:09;100872.72;;;11.50;100.00
48652;BME280;34442;52.362;-1.302;2023-02-20T10:50:43;100868.13;;;11.37;100.00
48652;BME280;34442;52.362;-1.302;2023-02-20T10:53:23;100877.47;;;11.48;100.00
48652;BME280;34442;52.362;-1.302;2023-02-20T10:55:58;100887.41;;;11.47;100.00
48652;BME280;34442;52.362;-1.302;2023-02-20T10:58:41;100872.78;;;11.56;100.00
48652;BME280;34442;52.362;-1.302;2023-02-20T11:01:14;100869.88;;;11.58;100.00
48652;BME280;34442;52.362;-1.302;2023-02-20T11:03:43;100874.25;;;11.65;100.00
48652;BME280;34442;52.362;-1.302;2023-02-20T11:06:15;100881.94;;;11.75;100.00
48652;BME280;34442;52.362;-1.302;2023-02-20T11:08:43;100883.84;;;11.81;100.00
48652;BME280;34442;52.362;-1.302;2023-02-20T11:11:34;100884.25;;;11.78;100.00
48652;BME280;34442;52.362;-1.302;2023-02-20T11:14:04;100872.03;;;11.82;100.00
48652;BME280;34442;52.362;-1.302;2023-02-20T11:16:41;100871.88;;;11.90;100.00
48652;BME280;34442;52.362;-1.302;2023-02-20T11:19:15;100876.25;;;11.98;100.00
48652;BME280;34442;52.362;-1.302;2023-02-20T11:21:45;100883.31;;;12.12;100.00
48652;BME280;34442;52.362;-1.302;2023-02-20T11:26:48;100886.81;;;12.00;100.00
48652;BME280;34442;52.362;-1.302;2023-02-20T11:29:19;100878.16;;;12.11;100.00
48652;BME280;34442;52.362;-1.302;2023-02-20T11:31:46;100881.25;;;12.21;100.00
48652;BME280;34442;52.362;-1.302;2023-02-20T11:34:23;100883.38;;;12.46;100.00
48652;BME280;34442;52.362;-1.302;2023-02-20T11:36:54;100887.53;;;12.35;100.00
48652;BME280;34442;52.362;-1.302;2023-02-20T11:39:29;100885.25;;;12.38;100.00
48652;BME280;34442;52.362;-1.302;2023-02-20T11:42:14;100887.09;;;12.45;100.00
48652;BME280;34442;52.362;-1.302;2023-02-20T11:44:40;100885.00;;;12.47;100.00
48652;BME280;34442;52.362;-1.302;2023-02-20T11:47:26;100877.97;;;12.32;100.00
48652;BME280;34442;52.362;-1.302;2023-02-20T11:52:33;100878.81;;;12.59;100.00
48652;BME280;34442;52.362;-1.302;2023-02-20T11:55:19;100865.53;;;12.58;100.00
48652;BME280;34442;52.362;-1.302;2023-02-20T11:57:46;100861.38;;;12.62;100.00
48652;BME280;34442;52.362;-1.302;2023-02-20T12:00:14;100871.75;;;12.65;100.00
48652;BME280;34442;52.362;-1.302;2023-02-20T12:05:44;100870.53;;;12.68;100.00
48652;BME280;34442;52.362;-1.302;2023-02-20T12:11:23;100874.63;;;12.90;100.00
48652;BME280;34442;52.362;-1.302;2023-02-20T12:13:51;100861.78;;;12.92;100.00
48652;BME280;34442;52.362;-1.302;2023-02-20T12:21:44;100868.19;;;12.98;100.00
48652;BME280;34442;52.362;-1.302;2023-02-20T12:30:14;100850.66;;;13.40;100.00
48652;BME280;34442;52.362;-1.302;2023-02-20T12:35:55;100847.13;;;13.39;100.00
48652;BME280;34442;52.362;-1.302;2023-02-20T12:38:31;100848.19;;;13.32;100.00
48652;BME280;34442;52.362;-1.302;2023-02-20T12:41:22;100838.44;;;13.31;100.00
48652;BME280;34442;52.362;-1.302;2023-02-20T12:49:21;100836.50;;;13.45;100.00
48652;BME280;34442;52.362;-1.302;2023-02-20T12:52:16;100834.25;;;13.42;100.00
48652;BME280;34442;52.362;-1.302;2023-02-20T12:58:08;100836.56;;;13.38;100.00
48652;BME280;34442;52.362;-1.302;2023-02-20T13:00:50;100834.19;;;13.55;100.00
48652;BME280;34442;52.362;-1.302;2023-02-20T13:03:22;100835.50;;;13.39;100.00
48652;BME280;34442;52.362;-1.302;2023-02-20T13:05:49;100828.84;;;13.42;100.00
48652;BME280;34442;52.362;-1.302;2023-02-20T13:11:21;100812.44;;;13.43;100.00
48652;BME280;34442;52.362;-1.302;2023-02-20T13:19:28;100799.50;;;13.52;100.00
48652;BME280;34442;52.362;-1.302;2023-02-20T13:21:55;100780.81;;;13.50;100.00
48652;BME280;34442;52.362;-1.302;2023-02-20T13:26:55;100773.50;;;13.57;100.00
48652;BME280;34442;52.362;-1.302;2023-02-20T13:29:23;100777.63;;;13.67;100.00
48652;BME280;34442;52.362;-1.302;2023-02-20T13:31:59;100772.81;;;13.69;100.00
48652;BME280;34442;52.362;-1.302;2023-02-20T13:34:35;100771.16;;;13.68;100.00
48652;BME280;34442;52.362;-1.302;2023-02-20T13:37:02;100775.91;;;13.72;100.00
48652;BME280;34442;52.362;-1.302;2023-02-20T13:42:01;100777.56;;;13.73;100.00
48652;BME280;34442;52.362;-1.302;2023-02-20T13:57:48;100757.53;;;13.87;100.00
48652;BME280;34442;52.362;-1.302;2023-02-20T14:03:44;100756.19;;;13.97;100.00
48652;BME280;34442;52.362;-1.302;2023-02-20T14:06:15;100750.81;;;13.90;100.00
48652;BME280;34442;52.362;-1.302;2023-02-20T14:08:45;100742.31;;;13.86;100.00
48652;BME280;34442;52.362;-1.302;2023-02-20T14:13:43;100731.72;;;13.92;100.00
48652;BME280;34442;52.362;-1.302;2023-02-20T14:18:57;100736.50;;;13.89;100.00
48652;BME280;34442;52.362;-1.302;2023-02-20T14:21:23;100740.13;;;14.02;100.00
48652;BME280;34442;52.362;-1.302;2023-02-20T14:23:51;100736.97;;;14.11;100.00
48652;BME280;34442;52.362;-1.302;2023-02-20T14:26:29;100735.22;;;14.17;100.00
48652;BME280;34442;52.362;-1.302;2023-02-20T14:28:56;100727.63;;;14.07;100.00
48652;BME280;34442;52.362;-1.302;2023-02-20T14:31:24;100723.16;;;14.20;100.00
48652;BME280;34442;52.362;-1.302;2023-02-20T14:41:58;100736.00;;;14.24;100.00
48652;BME280;34442;52.362;-1.302;2023-02-20T14:44:24;100726.13;;;14.11;100.00
48652;BME280;34442;52.362;-1.302;2023-02-20T14:46:56;100730.53;;;14.06;100.00
48652;BME280;34442;52.362;-1.302;2023-02-20T14:49:27;100734.44;;;14.10;100.00
48652;BME280;34442;52.362;-1.302;2023-02-20T14:54:34;100731.88;;;13.97;100.00
48652;BME280;34442;52.362;-1.302;2023-02-20T14:56:59;100730.00;;;13.97;100.00
48652;BME280;34442;52.362;-1.302;2023-02-20T14:59:31;100720.78;;;14.05;100.00